Kimper, KY

07:23 AM EST em 30 de Janeiro de 2015 (GMT -0500)
Carroll | Change Station
CLOSE
Current Station
Aeroporto
Location: Jackson,
Altitude: 1381 ft
Estações Meteorológicas Próximas
Alerta a Decorrer: Special Statement

Elev 1381 ft 37.59 °N, 83.31 °W | Updated 16 minutes ago

Neve
Neve
31 °F
Aparente 26 °F
N
5
Vento Variável Vento de Variável

Hoje
Máxima -- | Mínima -- °F
--% Possibilidade de Precip.
Ontem
Máxima -- | Mínima -- °F
Precip. -- pol
7:34 AM 5:50 PM
Lua crescente, 82% visible
Pressão 30.26 pol
Visibilidade 7.0 milhas
Nuvens Poucas 1900 ft
Muito Nublado 3800 ft
Céu Encoberto 5000 ft
Sensação Térmica 26 °F
Ponto de Orvalho 25 °F
Humidade 79%
Chuva 0.02 pol
Altura de Neve Não disponível
UV 0 em vez de 12
Pólen .10 em vez de 12
Qualidade do Ar Não disponível
Flu Activity Não disponível
SPECI KJKL 301207Z AUTO VRB04KT 7SM -SN FEW019 BKN038 OVC050 M01/M04 A3026 RMK AO2 SNB1158 P0000 T10061039

More Conditions Fewer Conditions

Pressão 30.26 pol
Visibilidade 7.0 milhas
Nuvens Poucas 1900 ft
Muito Nublado 3800 ft
Céu Encoberto 5000 ft
Sensação Térmica 26 °F
Ponto de Orvalho 25 °F
Humidade 79%
Chuva 0.02 pol
Altura de Neve Não disponível
UV 0 em vez de 12
Pólen .10 em vez de 12
Qualidade do Ar Não disponível
Flu Activity Não disponível
SPECI KJKL 301207Z AUTO VRB04KT 7SM -SN FEW019 BKN038 OVC050 M01/M04 A3026 RMK AO2 SNB1158 P0000 T10061039

More Conditions Fewer Conditions

10-Day Weather Forecast

Almanac

Astronomia

Jan. 30, 2015 Nascer Pôr
Hora atual
Crepúsculo civil
Crepúsculo náutico
Crepúsculo astronómico
Lua
Comprimento da luz visível
Duração do Dia
Tomorrow will be .
, % of the Moon is Illuminated

Extremos de Hoje

situação na parte mais alta situação na parte mais baixa

Community

WunderPhotos

Upload Photos

1,791,738 fotografias inseridas!

WunderBlogs® & News

Nearby

Qualidade do Ar

  Qualidade do Ar Índice da Q.A. Poluente
Not available.

Altura da Neve

Estação altura Altitude

Actividade Sísmisca

Cidade Distância Mag. Hora & Data
Mínima magnitude apresentada é 2.5.

Temperaturas das Águas Costeiras

Local Temperatura

Estações Meteorológicas Próximas